Time;durP1;ratioP1;P1;durP2;ratioP2;P2;SDS_P1;SDS_P2;PMS_P1;PMS_P2;Temp;Humidity;BMP_temperature;BMP_pressure;BME280_temperature;BME280_humidity;BME280_pressure;Samples;Min_cycle;Max_cycle;Signal;HPM_P1;HPM_P2
2023/04/30 00:00:35;;;;;;;11.60;5.95;;;;;;;13.22;100.00;101050.00;2097181;28;20083;-78
2023/04/30 00:01:56;;;;;;;10.10;6.18;;;;;;;13.22;100.00;101057.94;2092837;28;20523;-77
2023/04/30 00:03:19;;;;;;;9.48;5.57;;;;;;;13.19;100.00;101053.53;2095758;28;20048;-77
2023/04/30 00:04:41;;;;;;;10.43;5.95;;;;;;;13.18;100.00;101051.75;2103754;28;20711;-77
2023/04/30 00:06:03;;;;;;;8.88;5.50;;;;;;;13.19;100.00;101055.28;2093226;28;21742;-77
2023/04/30 00:07:25;;;;;;;9.65;5.28;;;;;;;13.19;100.00;101050.88;2093771;28;20035;-77
2023/04/30 00:08:49;;;;;;;9.48;6.05;;;;;;;13.21;100.00;101045.56;2085467;28;20115;-77
2023/04/30 00:10:10;;;;;;;8.88;5.72;;;;;;;13.21;100.00;101058.81;2088881;28;20044;-77
2023/04/30 00:11:33;;;;;;;10.05;5.65;;;;;;;13.20;100.00;101049.97;2091238;28;20775;-77
2023/04/30 00:12:55;;;;;;;8.20;5.35;;;;;;;13.21;100.00;101046.44;2094854;28;20062;-77
2023/04/30 00:14:17;;;;;;;9.18;5.75;;;;;;;13.18;100.00;101041.13;2093466;28;20090;-77
2023/04/30 00:15:39;;;;;;;8.98;5.78;;;;;;;13.16;100.00;101046.41;2097528;28;20071;-77
2023/04/30 00:17:00;;;;;;;9.57;5.38;;;;;;;13.18;100.00;101050.84;2099221;28;20044;-77
2023/04/30 00:18:23;;;;;;;10.73;6.25;;;;;;;13.18;100.00;101041.13;2093683;28;20043;-77
2023/04/30 00:19:44;;;;;;;14.32;5.72;;;;;;;13.15;100.00;101049.03;2097603;28;20520;-77
2023/04/30 00:21:06;;;;;;;8.23;5.10;;;;;;;13.09;100.00;101044.53;2094100;28;21415;-77
2023/04/30 00:22:28;;;;;;;7.70;5.07;;;;;;;13.06;100.00;101044.50;2100106;27;20214;-77
2023/04/30 00:23:51;;;;;;;7.90;5.63;;;;;;;13.04;100.00;101046.25;2098698;28;20508;-77
2023/04/30 00:25:14;;;;;;;9.68;5.68;;;;;;;12.98;100.00;101043.56;2092770;28;20169;-77
2023/04/30 00:26:35;;;;;;;7.50;5.50;;;;;;;12.93;100.00;101047.91;2094530;28;20101;-77
2023/04/30 00:27:58;;;;;;;8.32;5.47;;;;;;;12.88;100.00;101046.06;2093367;28;20083;-77
2023/04/30 00:29:20;;;;;;;9.13;5.97;;;;;;;12.86;100.00;101051.38;2084869;28;20107;-77
2023/04/30 00:30:43;;;;;;;10.70;5.63;;;;;;;12.86;100.00;101043.44;2089851;28;20135;-77
2023/04/30 00:32:05;;;;;;;10.68;6.18;;;;;;;12.86;100.00;101046.09;2087883;28;20093;-77
2023/04/30 00:33:27;;;;;;;13.88;6.38;;;;;;;12.84;100.00;101047.81;2087663;28;20052;-77
2023/04/30 00:34:49;;;;;;;11.57;6.70;;;;;;;12.84;100.00;101050.47;2093006;28;20056;-77
2023/04/30 00:36:12;;;;;;;9.63;5.88;;;;;;;12.84;100.00;101052.22;2086395;28;20060;-77
2023/04/30 00:37:35;;;;;;;11.15;6.75;;;;;;;12.84;100.00;101047.81;2090192;28;20047;-77
2023/04/30 00:38:59;;;;;;;9.60;6.07;;;;;;;12.84;100.00;101055.75;2087208;28;20147;-76
2023/04/30 00:40:22;;;;;;;10.07;6.03;;;;;;;12.83;100.00;101043.38;2090203;28;20114;-77
2023/04/30 00:41:45;;;;;;;11.98;7.00;;;;;;;12.84;100.00;101039.88;2093279;28;20385;-77
2023/04/30 00:43:07;;;;;;;8.90;5.75;;;;;;;12.86;100.00;101035.50;2084074;28;20088;-77
2023/04/30 00:44:29;;;;;;;10.85;6.00;;;;;;;12.89;100.00;101045.22;2083878;28;20086;-77
2023/04/30 00:45:51;;;;;;;8.32;5.13;;;;;;;12.93;100.00;101047.03;2094628;28;20044;-77
2023/04/30 00:47:14;;;;;;;10.43;5.90;;;;;;;12.94;100.00;101043.47;2096066;28;20044;-77
2023/04/30 00:48:35;;;;;;;8.95;5.60;;;;;;;12.98;100.00;101045.31;2102274;28;20047;-77
2023/04/30 00:49:58;;;;;;;8.73;5.47;;;;;;;13.01;100.00;101043.56;2086348;28;20481;-77
2023/04/30 00:51:19;;;;;;;9.70;5.47;;;;;;;13.04;100.00;101040.97;2088486;28;20066;-77
2023/04/30 00:52:42;;;;;;;7.45;4.95;;;;;;;13.07;100.00;101045.38;2091006;28;20712;-77
2023/04/30 00:54:07;;;;;;;8.65;5.63;;;;;;;13.11;100.00;101041.91;2085204;28;20596;-77
2023/04/30 00:55:30;;;;;;;7.90;5.13;;;;;;;13.14;100.00;101034.00;2091219;28;20581;-77
2023/04/30 00:56:51;;;;;;;8.68;5.40;;;;;;;13.18;100.00;101032.28;2100670;28;20044;-77
2023/04/30 00:58:13;;;;;;;10.30;5.35;;;;;;;13.19;100.00;101031.41;2090234;28;20048;-77
2023/04/30 00:59:35;;;;;;;7.35;5.38;;;;;;;13.20;100.00;101031.41;2091846;28;20045;-77
2023/04/30 01:00:58;;;;;;;7.57;5.28;;;;;;;13.21;100.00;101022.59;2094520;28;20068;-77
2023/04/30 01:02:21;;;;;;;9.18;5.95;;;;;;;13.18;100.00;101022.59;2094770;28;20040;-77
2023/04/30 01:03:44;;;;;;;9.10;5.50;;;;;;;13.11;100.00;101020.72;2087606;28;20859;-77
2023/04/30 01:05:07;;;;;;;9.20;6.07;;;;;;;13.05;100.00;101026.84;2092976;28;20054;-77
2023/04/30 01:06:30;;;;;;;12.23;5.25;;;;;;;13.02;100.00;101023.25;2100440;28;20052;-77
2023/04/30 01:07:54;;;;;;;8.82;5.55;;;;;;;13.03;100.00;101020.63;2094483;28;20056;-77
2023/04/30 01:09:18;;;;;;;9.82;5.10;;;;;;;13.04;100.00;101014.47;2092967;28;20060;-77
2023/04/30 01:10:46;;;;;;;9.77;5.53;;;;;;;13.06;100.00;101020.66;2101959;28;20051;-77
2023/04/30 01:12:13;;;;;;;9.23;5.45;;;;;;;13.05;100.00;101026.84;2097686;28;20174;-77
2023/04/30 01:13:44;;;;;;;8.38;5.40;;;;;;;13.05;100.00;101016.25;2102787;28;20052;-77
2023/04/30 01:15:15;;;;;;;9.45;5.35;;;;;;;13.04;100.00;101018.88;2095779;28;20051;-77
2023/04/30 01:16:44;;;;;;;7.30;5.50;;;;;;;13.03;100.00;101014.44;2086564;28;20040;-77
2023/04/30 01:18:11;;;;;;;11.57;5.40;;;;;;;13.03;100.00;101025.94;2091463;28;20504;-77
2023/04/30 01:19:42;;;;;;;10.05;5.57;;;;;;;13.04;100.00;101024.19;2099337;28;20126;-77
2023/04/30 01:21:05;;;;;;;9.05;5.43;;;;;;;13.03;100.00;101023.28;2093751;28;20091;-77
2023/04/30 01:22:42;;;;;;;7.28;5.50;;;;;;;13.01;100.00;101022.38;2096211;28;20055;-77
2023/04/30 01:24:24;;;;;;;7.32;5.55;;;;;;;12.98;100.00;101029.41;2095279;28;20434;-77
2023/04/30 01:26:08;;;;;;;8.10;5.40;;;;;;;12.90;100.00;101026.69;2096201;28;20085;-77
2023/04/30 01:28:01;;;;;;;7.28;5.65;;;;;;;12.83;100.00;101029.25;2089893;28;20067;-76
2023/04/30 01:29:26;;;;;;;8.93;5.90;;;;;;;12.78;100.00;101035.41;2090970;28;20408;-77
2023/04/30 01:30:49;;;;;;;11.27;6.15;;;;;;;12.76;100.00;101033.59;2086353;28;20048;-77
2023/04/30 01:32:10;;;;;;;10.38;6.47;;;;;;;12.73;100.00;101033.56;2083202;28;20052;-77
2023/04/30 01:33:33;;;;;;;6.97;5.78;;;;;;;12.70;100.00;101041.47;2089429;28;21666;-77
2023/04/30 01:34:54;;;;;;;10.57;7.07;;;;;;;12.69;100.00;101042.34;2092963;28;20139;-77
2023/04/30 01:36:35;;;;;;;10.13;6.45;;;;;;;12.68;100.00;101049.38;2089326;28;20043;-77
2023/04/30 01:38:11;;;;;;;10.80;7.03;;;;;;;12.68;100.00;101041.44;2094029;28;20460;-77
2023/04/30 01:39:57;;;;;;;8.65;6.45;;;;;;;12.69;100.00;101040.59;2093043;28;20064;-77
2023/04/30 01:41:28;;;;;;;10.13;6.63;;;;;;;12.67;100.00;101037.00;2096299;28;20036;-78
2023/04/30 01:43:02;;;;;;;10.43;6.35;;;;;;;12.66;100.00;101044.97;2094560;28;20059;-77
2023/04/30 01:44:40;;;;;;;10.93;6.80;;;;;;;12.67;100.00;101044.06;2087364;28;20401;-77
2023/04/30 01:46:13;;;;;;;9.85;6.25;;;;;;;12.67;100.00;101044.97;2095076;28;20564;-77
2023/04/30 01:47:39;;;;;;;11.50;6.28;;;;;;;12.66;100.00;101045.84;2101249;28;20063;-78
2023/04/30 01:49:13;;;;;;;7.65;6.22;;;;;;;12.70;100.00;101042.38;2086726;28;20076;-78
2023/04/30 01:50:42;;;;;;;9.13;5.82;;;;;;;12.71;100.00;101030.00;2098702;28;20071;-78
2023/04/30 01:52:11;;;;;;;9.13;5.90;;;;;;;12.72;100.00;101037.97;2093894;28;20052;-78
2023/04/30 01:53:41;;;;;;;11.05;5.88;;;;;;;12.72;100.00;101029.16;2086160;28;20041;-78
2023/04/30 01:55:07;;;;;;;10.48;6.22;;;;;;;12.71;100.00;101024.72;2090241;28;20573;-77
2023/04/30 01:56:36;;;;;;;7.60;5.75;;;;;;;12.70;100.00;101029.13;2090340;28;20492;-77
2023/04/30 01:58:00;;;;;;;10.30;6.10;;;;;;;12.67;100.00;101034.38;2090665;28;20620;-77
2023/04/30 01:59:22;;;;;;;8.43;5.55;;;;;;;12.64;100.00;101030.81;2084803;28;20499;-77
2023/04/30 02:00:46;;;;;;;10.77;5.53;;;;;;;12.64;100.00;101033.47;2085784;28;20654;-77
2023/04/30 02:02:07;;;;;;;8.20;5.68;;;;;;;12.65;100.00;101033.47;2101048;28;20434;-77
2023/04/30 02:03:30;;;;;;;11.23;6.30;;;;;;;12.66;100.00;101032.63;2094662;28;20060;-77
2023/04/30 02:04:53;;;;;;;8.77;5.38;;;;;;;12.63;100.00;101037.88;2088988;28;21757;-77
2023/04/30 02:06:14;;;;;;;8.10;5.05;;;;;;;12.62;100.00;101036.09;2095244;28;20051;-77
2023/04/30 02:07:40;;;;;;;9.80;5.25;;;;;;;12.60;100.00;101029.00;2086614;28;20642;-77
2023/04/30 02:09:05;;;;;;;8.38;5.10;;;;;;;12.58;100.00;101038.69;2089840;28;20737;-77
2023/04/30 02:10:29;;;;;;;10.13;6.03;;;;;;;12.58;100.00;101043.97;2086127;28;20102;-78
2023/04/30 02:11:51;;;;;;;10.23;5.35;;;;;;;12.59;100.00;101038.72;2085347;28;20052;-77
2023/04/30 02:13:14;;;;;;;8.48;5.78;;;;;;;12.62;100.00;101038.72;2088963;28;20056;-78
2023/04/30 02:14:36;;;;;;;10.82;5.90;;;;;;;12.65;100.00;101041.44;2084773;28;20048;-78
2023/04/30 02:16:00;;;;;;;8.82;5.50;;;;;;;12.67;100.00;101038.78;2086585;28;20136;-78
2023/04/30 02:17:21;;;;;;;8.10;5.80;;;;;;;12.67;100.00;101038.78;2085181;28;20531;-78
2023/04/30 02:18:44;;;;;;;11.35;6.13;;;;;;;12.64;100.00;101038.75;2089623;28;20051;-77
2023/04/30 02:20:08;;;;;;;6.63;5.47;;;;;;;12.61;100.00;101034.28;2082022;28;20071;-77
2023/04/30 02:21:30;;;;;;;10.80;5.80;;;;;;;12.61;100.00;101042.25;2099412;28;20142;-77
2023/04/30 02:22:53;;;;;;;7.18;5.45;;;;;;;12.63;100.00;101045.81;2093800;28;20048;-77
2023/04/30 02:24:14;;;;;;;11.23;6.53;;;;;;;12.65;100.00;101036.13;2091981;28;20745;-77
2023/04/30 02:25:37;;;;;;;13.20;5.93;;;;;;;12.66;100.00;101029.97;2092709;28;20074;-77
2023/04/30 02:27:00;;;;;;;7.53;5.93;;;;;;;12.67;100.00;101026.41;2086070;28;20140;-78
2023/04/30 02:28:21;;;;;;;10.20;6.13;;;;;;;12.66;100.00;101024.66;2094884;28;20085;-77
2023/04/30 02:29:43;;;;;;;9.80;6.80;;;;;;;12.60;100.00;101027.22;2097109;28;20055;-77
2023/04/30 02:31:06;;;;;;;8.88;6.88;;;;;;;12.56;100.00;101028.06;2086205;28;20134;-77
2023/04/30 02:32:29;;;;;;;12.60;7.28;;;;;;;12.53;100.00;101028.06;2084674;28;20083;-77
2023/04/30 02:33:51;;;;;;;8.20;6.28;;;;;;;12.48;100.00;101021.78;2096971;28;20051;-77
2023/04/30 02:35:13;;;;;;;9.13;6.15;;;;;;;12.42;100.00;101019.06;2095856;28;20051;-77
2023/04/30 02:36:35;;;;;;;9.80;6.10;;;;;;;12.36;100.00;101025.19;2091711;28;21467;-77
2023/04/30 02:37:57;;;;;;;10.40;5.85;;;;;;;12.32;100.00;101025.13;2093113;28;20048;-77
2023/04/30 02:39:19;;;;;;;9.10;6.18;;;;;;;12.28;100.00;101028.59;2092344;28;20067;-77
2023/04/30 02:40:42;;;;;;;10.18;5.82;;;;;;;12.24;100.00;101032.97;2099373;28;20436;-77
2023/04/30 02:42:05;;;;;;;8.75;6.32;;;;;;;12.17;100.00;101028.47;2091191;28;20090;-77
2023/04/30 02:43:27;;;;;;;10.27;6.35;;;;;;;12.12;100.00;101030.16;2093794;28;20252;-77
2023/04/30 02:44:49;;;;;;;8.93;5.78;;;;;;;12.12;100.00;101032.81;2084027;28;21246;-77
2023/04/30 02:46:12;;;;;;;10.73;5.53;;;;;;;12.12;100.00;101035.47;2096914;28;20535;-77
2023/04/30 02:47:35;;;;;;;11.32;5.57;;;;;;;12.12;100.00;101038.09;2094710;28;20146;-77
2023/04/30 02:48:56;;;;;;;10.63;6.07;;;;;;;12.14;100.00;101038.13;2093280;28;20055;-77
2023/04/30 02:50:19;;;;;;;10.23;5.65;;;;;;;12.16;100.00;101045.19;2103279;28;20055;-77
2023/04/30 02:51:40;;;;;;;11.52;6.25;;;;;;;12.18;100.00;101038.19;2087954;28;20063;-77
2023/04/30 02:53:04;;;;;;;10.85;5.70;;;;;;;12.18;100.00;101045.22;2100619;28;20055;-77
2023/04/30 02:54:25;;;;;;;8.77;5.20;;;;;;;12.21;100.00;101042.59;2104917;28;20193;-77
2023/04/30 02:55:47;;;;;;;9.98;5.70;;;;;;;12.20;100.00;101040.84;2089335;28;20523;-77
2023/04/30 02:57:09;;;;;;;8.75;6.10;;;;;;;12.18;100.00;101046.13;2085892;28;20079;-77
2023/04/30 02:58:31;;;;;;;8.70;5.82;;;;;;;12.18;100.00;101039.94;2090788;28;20365;-77
2023/04/30 02:59:53;;;;;;;7.93;5.68;;;;;;;12.17;100.00;101036.41;2091308;28;20036;-77
2023/04/30 03:01:16;;;;;;;10.77;5.97;;;;;;;12.15;100.00;101035.47;2091075;28;20579;-78
2023/04/30 03:02:39;;;;;;;9.43;6.00;;;;;;;12.10;100.00;101038.94;2097234;28;20098;-77
2023/04/30 03:04:02;;;;;;;11.75;6.07;;;;;;;12.08;100.00;101038.06;2089199;28;20143;-78
2023/04/30 03:05:24;;;;;;;10.00;5.55;;;;;;;12.06;100.00;101040.66;2084469;28;20056;-77
2023/04/30 03:06:47;;;;;;;7.47;5.88;;;;;;;12.04;100.00;101038.84;2094691;28;20044;-78
2023/04/30 03:08:09;;;;;;;8.35;6.15;;;;;;;12.00;100.00;101035.28;2095835;28;20040;-77
2023/04/30 03:09:32;;;;;;;9.10;6.32;;;;;;;11.97;100.00;101032.59;2093739;28;20130;-77
2023/04/30 03:10:53;;;;;;;9.85;5.72;;;;;;;11.93;100.00;101034.31;2094310;28;20081;-78
2023/04/30 03:12:16;;;;;;;11.80;6.20;;;;;;;11.92;100.00;101039.56;2086358;28;20048;-78
2023/04/30 03:13:38;;;;;;;9.75;5.95;;;;;;;11.90;100.00;101039.53;2091194;28;20198;-78
2023/04/30 03:14:59;;;;;;;7.95;5.38;;;;;;;11.88;100.00;101043.91;2091446;28;20044;-78
2023/04/30 03:16:23;;;;;;;10.45;6.13;;;;;;;11.87;100.00;101043.91;2086472;28;20033;-79
2023/04/30 03:17:45;;;;;;;7.70;5.82;;;;;;;11.86;100.00;101050.97;2091830;28;20063;-78
2023/04/30 03:19:07;;;;;;;8.60;5.22;;;;;;;11.85;100.00;101043.00;2099548;28;20467;-78
2023/04/30 03:20:30;;;;;;;9.63;6.18;;;;;;;11.87;100.00;101042.16;2095431;28;20054;-78
2023/04/30 03:21:51;;;;;;;8.43;6.03;;;;;;;11.88;100.00;101040.41;2085877;28;20106;-78
2023/04/30 03:23:14;;;;;;;10.77;6.22;;;;;;;11.89;100.00;101039.53;2089507;28;20535;-78
2023/04/30 03:24:36;;;;;;;9.95;5.85;;;;;;;11.87;100.00;101047.47;2093667;28;20620;-78
2023/04/30 03:25:58;;;;;;;7.38;5.60;;;;;;;11.86;100.00;101043.03;2091497;28;20064;-78
2023/04/30 03:27:19;;;;;;;8.20;5.25;;;;;;;11.86;100.00;101047.44;2091564;28;20131;-78
2023/04/30 03:28:42;;;;;;;10.25;6.40;;;;;;;11.87;100.00;101050.09;2085212;28;20057;-78
2023/04/30 03:30:06;;;;;;;7.28;5.50;;;;;;;11.87;100.00;101047.47;2100030;28;20036;-78
2023/04/30 03:31:30;;;;;;;9.50;5.53;;;;;;;11.90;100.00;101049.25;2084453;28;20717;-78
2023/04/30 03:32:51;;;;;;;9.18;6.07;;;;;;;11.93;100.00;101052.84;2085325;28;20091;-78
2023/04/30 03:34:13;;;;;;;11.63;5.97;;;;;;;11.97;100.00;101057.28;2082911;28;20147;-79
2023/04/30 03:35:36;;;;;;;11.18;6.18;;;;;;;11.99;100.00;101054.69;2090333;28;20033;-78
2023/04/30 03:36:59;;;;;;;9.15;5.43;;;;;;;11.98;100.00;101053.78;2089229;28;20097;-77
2023/04/30 03:38:21;;;;;;;8.02;5.85;;;;;;;11.98;100.00;101056.44;2093264;28;20033;-77
2023/04/30 03:39:43;;;;;;;12.15;6.43;;;;;;;11.99;100.00;101059.97;2087208;28;20168;-78
2023/04/30 03:41:06;;;;;;;9.27;6.15;;;;;;;12.00;100.00;101059.09;2088347;28;20048;-78
2023/04/30 03:42:27;;;;;;;9.00;6.05;;;;;;;12.03;100.00;101063.53;2084349;28;20218;-77
2023/04/30 03:43:49;;;;;;;9.93;5.65;;;;;;;12.03;100.00;101064.44;2084666;28;20049;-78
2023/04/30 03:45:12;;;;;;;9.50;5.50;;;;;;;12.02;100.00;101067.94;2091805;28;20052;-78
2023/04/30 03:46:34;;;;;;;8.75;5.20;;;;;;;11.98;100.00;101067.00;2089846;28;20041;-79
2023/04/30 03:47:57;;;;;;;7.82;5.60;;;;;;;12.00;100.00;101076.75;2085622;28;20041;-78
2023/04/30 03:49:18;;;;;;;10.75;5.45;;;;;;;12.02;100.00;101083.81;2096923;28;20093;-78
2023/04/30 03:50:41;;;;;;;7.70;4.72;;;;;;;12.08;100.00;101075.94;2092156;28;20040;-78
2023/04/30 03:52:03;;;;;;;7.38;4.78;;;;;;;12.18;100.00;101082.28;2086522;28;20045;-78
2023/04/30 03:53:26;;;;;;;8.32;5.18;;;;;;;12.25;100.00;101078.84;2104598;28;20055;-78
2023/04/30 03:54:47;;;;;;;8.88;4.70;;;;;;;12.34;100.00;101078.97;2087863;28;20036;-78
2023/04/30 03:56:11;;;;;;;;;;;;;;;12.37;100.00;101077.25;2095463;28;20052;-78
2023/04/30 03:57:32;;;;;;;7.95;4.70;;;;;;;12.45;100.00;101079.13;2084141;28;19928;-78
2023/04/30 03:58:55;;;;;;;6.63;4.75;;;;;;;12.54;100.00;101076.56;2095903;28;20043;-78
2023/04/30 04:00:16;;;;;;;10.65;4.80;;;;;;;12.61;100.00;101078.44;2095902;28;20056;-78
2023/04/30 04:01:45;;;;;;;7.97;4.50;;;;;;;12.68;100.00;101081.19;2102650;28;20056;-78
2023/04/30 04:03:06;;;;;;;6.93;3.85;;;;;;;12.71;100.00;101077.69;2087004;28;20049;-78
2023/04/30 04:04:30;;;;;;;7.55;4.30;;;;;;;12.75;100.00;101080.38;2082699;28;21497;-78
2023/04/30 04:05:51;;;;;;;6.78;3.92;;;;;;;12.83;100.00;101087.53;2100064;28;20040;-78
2023/04/30 04:07:13;;;;;;;8.00;3.72;;;;;;;12.90;100.00;101084.09;2102432;28;20040;-78
2023/04/30 04:08:35;;;;;;;6.97;3.78;;;;;;;12.96;100.00;101085.03;2087131;28;20068;-78
2023/04/30 04:09:58;;;;;;;6.50;3.90;;;;;;;13.02;100.00;101084.22;2101041;28;20047;-78
2023/04/30 04:11:20;;;;;;;6.63;3.90;;;;;;;13.09;100.00;101084.31;2091763;28;21466;-78
2023/04/30 04:12:42;;;;;;;7.35;3.72;;;;;;;13.15;100.00;101080.84;2088065;28;20060;-77
2023/04/30 04:14:03;;;;;;;7.15;3.90;;;;;;;13.21;100.00;101083.56;2091808;28;20118;-78
2023/04/30 04:15:25;;;;;;;6.38;3.80;;;;;;;13.30;100.00;101088.06;2087647;28;20048;-77
2023/04/30 04:16:50;;;;;;;8.02;4.45;;;;;;;13.39;100.00;101089.03;2088727;28;20074;-78
2023/04/30 04:18:12;;;;;;;5.50;3.90;;;;;;;13.47;100.00;101083.81;2088560;28;20654;-78
2023/04/30 04:19:33;;;;;;;7.30;3.78;;;;;;;13.56;100.00;101081.25;2087853;28;20044;-78
2023/04/30 04:20:56;;;;;;;6.72;3.72;;;;;;;13.66;100.00;101091.03;2097243;28;20059;-77
2023/04/30 04:22:17;;;;;;;6.57;3.70;;;;;;;13.80;100.00;101089.41;2096034;28;20055;-78
2023/04/30 04:23:40;;;;;;;7.40;3.60;;;;;;;13.94;100.00;101092.16;2089773;28;20154;-78
2023/04/30 04:25:03;;;;;;;7.00;3.70;;;;;;;14.07;100.00;101094.00;2085408;28;20416;-78
2023/04/30 04:26:28;;;;;;;6.43;3.17;;;;;;;14.20;100.00;101093.22;2082999;28;20846;-78
2023/04/30 04:27:50;;;;;;;6.68;3.20;;;;;;;14.34;100.00;101091.53;2091550;28;20076;-78
2023/04/30 04:29:14;;;;;;;6.68;3.30;;;;;;;14.48;100.00;101094.28;2092278;28;20763;-78
2023/04/30 04:30:36;;;;;;;5.70;3.13;;;;;;;14.60;100.00;101093.47;2094992;28;20055;-77
2023/04/30 04:32:01;;;;;;;5.72;2.95;;;;;;;14.67;100.00;101090.84;2085495;28;20373;-78
2023/04/30 04:33:25;;;;;;;5.95;3.20;;;;;;;14.70;100.00;101093.50;2092622;28;20135;-78
2023/04/30 04:34:48;;;;;;;6.05;3.55;;;;;;;14.76;100.00;101092.66;2085714;28;20044;-78
2023/04/30 04:36:10;;;;;;;5.47;3.10;;;;;;;14.85;100.00;101097.09;2091819;28;20055;-78
2023/04/30 04:37:33;;;;;;;6.05;3.22;;;;;;;14.94;100.00;101087.38;2096224;28;20143;-78
2023/04/30 04:38:56;;;;;;;6.72;3.47;;;;;;;15.04;100.00;101086.53;2089586;28;20048;-78
2023/04/30 04:40:19;;;;;;;4.82;2.53;;;;;;;15.15;100.00;101090.13;2087798;28;20142;-78
2023/04/30 04:41:40;;;;;;;4.93;2.92;;;;;;;15.27;100.00;101099.00;2086704;28;20102;-78
2023/04/30 04:43:03;;;;;;;6.88;2.72;;;;;;;15.31;100.00;101100.75;2083007;28;20049;-78
2023/04/30 04:44:27;;;;;;;7.55;2.95;;;;;;;15.35;100.00;101094.56;2092157;28;20131;-78
2023/04/30 04:45:51;;;;;;;5.85;2.80;;;;;;;15.40;100.00;101104.34;2088111;28;20549;-78
2023/04/30 04:47:15;;;;;;;5.47;2.65;;;;;;;15.47;100.00;101094.59;2086325;28;20052;-78
2023/04/30 04:48:37;;;;;;;5.22;2.90;;;;;;;15.52;100.00;101096.41;2083261;28;20072;-78
2023/04/30 04:49:59;;;;;;;4.32;3.00;;;;;;;15.61;100.00;101092.88;2082980;28;20053;-78
2023/04/30 04:51:22;;;;;;;5.05;2.92;;;;;;;15.71;100.00;101099.06;2087667;28;20078;-78
2023/04/30 04:52:44;;;;;;;5.97;3.25;;;;;;;15.81;100.00;101101.75;2091659;28;20059;-78
2023/04/30 04:54:05;;;;;;;5.93;3.00;;;;;;;15.91;100.00;101099.94;2090436;28;20075;-78
2023/04/30 04:55:28;;;;;;;7.30;3.30;;;;;;;16.00;100.00;101094.63;2095272;28;20063;-77
2023/04/30 04:56:50;;;;;;;6.30;3.00;;;;;;;16.11;100.00;101099.91;2091954;28;20040;-79
2023/04/30 04:58:12;;;;;;;4.30;2.72;;;;;;;16.20;100.00;101099.91;2094164;28;20047;-77
2023/04/30 04:59:34;;;;;;;5.80;2.78;;;;;;;16.29;100.00;101105.19;2107625;28;20065;-78
2023/04/30 05:00:56;;;;;;;5.10;2.72;;;;;;;16.39;100.00;101098.97;2091074;28;20082;-78
2023/04/30 05:02:20;;;;;;;5.35;2.58;;;;;;;16.53;100.00;101112.25;2092576;28;20045;-78
2023/04/30 05:03:42;;;;;;;6.13;2.60;;;;;;;16.64;100.00;101106.03;2096828;28;20132;-78
2023/04/30 05:05:03;;;;;;;6.97;2.50;;;;;;;16.78;100.00;101099.75;2099509;28;20081;-78
2023/04/30 05:06:27;;;;;;;6.25;2.85;;;;;;;16.91;100.00;101101.47;2093731;28;20094;-78
2023/04/30 05:07:53;;;;;;;6.03;2.78;;;;;;;17.04;100.00;101103.19;2100036;28;20051;-78
2023/04/30 05:09:16;;;;;;;5.40;2.67;;;;;;;17.09;100.00;101101.38;2103074;28;20044;-78
2023/04/30 05:10:38;;;;;;;5.95;2.50;;;;;;;17.18;100.00;101096.00;2096607;28;20059;-79
2023/04/30 05:12:01;;;;;;;7.00;3.25;;;;;;;17.30;100.00;101103.91;2099696;28;20083;-78
2023/04/30 05:13:23;;;;;;;4.03;2.35;;;;;;;17.45;100.00;101109.16;2096028;28;20056;-79
2023/04/30 05:14:46;;;;;;;5.82;2.70;;;;;;;17.59;100.00;101108.16;2094022;28;20044;-79
2023/04/30 05:16:08;;;;;;;4.97;2.58;;;;;;;17.74;100.00;101108.06;2101292;28;20060;-79
2023/04/30 05:17:32;;;;;;;6.80;2.80;;;;;;;17.89;100.00;101103.50;2102537;28;20032;-79
2023/04/30 05:18:54;;;;;;;5.32;3.13;;;;;;;18.07;100.00;101106.88;2098906;28;20544;-79
2023/04/30 05:20:17;;;;;;;4.20;2.80;;;;;;;18.23;100.00;101109.41;2107231;28;20051;-79
2023/04/30 05:21:39;;;;;;;5.60;2.65;;;;;;;18.45;100.00;101106.47;2101967;28;20044;-79
2023/04/30 05:23:02;;;;;;;6.15;2.85;;;;;;;18.66;100.00;101104.47;2102485;28;20500;-79
2023/04/30 05:24:24;;;;;;;8.77;2.85;;;;;;;18.82;100.00;101102.53;2093728;28;20057;-78
2023/04/30 05:25:51;;;;;;;6.57;2.70;;;;;;;18.98;100.00;101104.06;2099527;28;20476;-79
2023/04/30 05:27:13;;;;;;;7.55;2.47;;;;;;;19.14;100.00;101103.88;2103063;28;20051;-79
2023/04/30 05:28:36;;;;;;;7.30;2.70;;;;;;;19.35;100.00;101106.25;2093791;28;20048;-78
2023/04/30 05:29:57;;;;;;;5.97;2.92;;;;;;;19.54;100.00;101102.41;2102216;28;20077;-79
2023/04/30 05:31:19;;;;;;;6.03;2.83;;;;;;;19.72;100.00;101107.47;2102424;28;20508;-79
2023/04/30 05:32:49;;;;;;;5.30;2.33;;;;;;;19.82;100.00;101109.06;2104939;28;20063;-79
2023/04/30 05:34:11;;;;;;;5.78;2.83;;;;;;;19.97;100.00;101107.03;2096651;28;20128;-79
2023/04/30 05:35:34;;;;;;;5.70;2.53;;;;;;;20.11;100.00;101105.00;2094020;28;20053;-79
2023/04/30 05:36:57;;;;;;;3.50;2.00;;;;;;;20.25;100.00;101108.31;2095353;28;20060;-78
2023/04/30 05:38:19;;;;;;;4.75;2.45;;;;;;;20.42;100.00;101106.22;2101528;28;20044;-79
2023/04/30 05:39:41;;;;;;;4.22;2.33;;;;;;;20.59;99.69;101101.44;2101751;28;20059;-79
2023/04/30 05:41:03;;;;;;;7.10;2.45;;;;;;;20.72;97.61;101107.44;2098726;28;20527;-79
2023/04/30 05:42:25;;;;;;;7.55;2.78;;;;;;;20.85;97.38;101103.56;2101248;28;20098;-79
2023/04/30 05:43:46;;;;;;;6.97;2.85;;;;;;;21.03;96.63;101104.97;2096597;28;20040;-80
2023/04/30 05:45:09;;;;;;;5.07;2.30;;;;;;;21.14;95.46;101102.94;2100115;28;20064;-79
2023/04/30 05:46:32;;;;;;;6.22;2.28;;;;;;;21.18;95.98;101104.69;2093573;28;20089;-79
2023/04/30 05:47:54;;;;;;;4.22;2.10;;;;;;;21.29;96.34;101108.00;2100464;28;20036;-79
2023/04/30 05:49:17;;;;;;;7.28;2.28;;;;;;;21.35;95.74;101109.66;2100442;28;20131;-79
2023/04/30 05:50:40;;;;;;;5.40;2.35;;;;;;;21.38;94.96;101106.91;2098961;28;20052;-79
2023/04/30 05:52:02;;;;;;;10.05;2.42;;;;;;;21.51;94.32;101107.50;2100518;28;20507;-79
2023/04/30 05:53:24;;;;;;;5.65;2.53;;;;;;;21.65;94.25;101105.38;2101972;28;20040;-77
2023/04/30 05:54:48;;;;;;;6.63;2.28;;;;;;;21.78;92.50;101099.66;2095947;28;20041;-77
2023/04/30 05:56:11;;;;;;;7.13;2.40;;;;;;;21.82;88.67;101104.03;2104594;28;20082;-77
2023/04/30 05:57:34;;;;;;;5.75;2.35;;;;;;;21.91;87.93;101097.53;2100844;28;20052;-75
2023/04/30 05:58:56;;;;;;;4.97;2.00;;;;;;;22.01;86.12;101101.78;2100867;28;20040;-77
2023/04/30 06:00:18;;;;;;;4.82;2.10;;;;;;;22.04;84.05;101101.72;2109708;28;20048;-76
2023/04/30 06:01:41;;;;;;;6.72;2.33;;;;;;;22.10;85.76;101098.84;2095364;28;20077;-78
2023/04/30 06:03:06;;;;;;;5.75;2.28;;;;;;;22.17;86.86;101094.19;2103850;28;20058;-78
2023/04/30 06:04:27;;;;;;;6.47;2.35;;;;;;;22.23;86.80;101097.59;2102678;28;20078;-77
2023/04/30 06:05:50;;;;;;;6.88;2.30;;;;;;;22.16;86.14;101101.38;2102657;28;20043;-77
2023/04/30 06:07:12;;;;;;;4.20;2.05;;;;;;;22.11;86.56;101106.00;2099435;28;20052;-77
2023/04/30 06:08:34;;;;;;;4.30;2.35;;;;;;;21.77;86.95;101099.69;2103542;28;20040;-77
2023/04/30 06:09:56;;;;;;;5.65;2.63;;;;;;;21.53;89.37;101095.78;2106512;28;20048;-78
2023/04/30 06:11:18;;;;;;;4.47;2.80;;;;;;;21.64;91.55;101096.41;2106552;28;20059;-77
2023/04/30 06:12:41;;;;;;;6.03;2.33;;;;;;;21.87;90.72;101096.72;2095547;28;20048;-78
2023/04/30 06:14:04;;;;;;;6.30;2.42;;;;;;;22.04;88.71;101090.06;2100667;28;20060;-76
2023/04/30 06:15:26;;;;;;;3.92;2.03;;;;;;;22.11;86.80;101100.63;2097882;28;20417;-78
2023/04/30 06:16:49;;;;;;;6.20;2.58;;;;;;;22.11;84.37;101100.63;2087272;28;20505;-78
2023/04/30 06:18:14;;;;;;;6.10;2.10;;;;;;;22.08;82.98;101103.38;2093111;28;20140;-79
2023/04/30 06:19:37;;;;;;;5.43;1.85;;;;;;;22.06;84.17;101107.91;2095861;28;20083;-79
2023/04/30 06:20:59;;;;;;;4.55;1.90;;;;;;;22.14;81.98;101108.59;2100886;28;20096;-79
2023/04/30 06:22:22;;;;;;;5.45;2.28;;;;;;;22.09;79.54;101102.47;2110945;28;20143;-79
2023/04/30 06:23:44;;;;;;;4.60;2.00;;;;;;;21.97;79.29;101107.28;2106437;28;20036;-78